createdAt,value
2019-03-23T00:01:00.611Z,46.73
2019-03-23T00:04:05.522Z,44.27
2019-03-23T00:07:10.507Z,45.10
2019-03-23T00:10:15.404Z,44.23
2019-03-23T00:13:20.378Z,43.63
2019-03-23T00:16:25.310Z,43.30
2019-03-23T00:19:30.217Z,44.03
2019-03-23T00:22:35.046Z,44.00
2019-03-23T00:25:39.955Z,44.83
2019-03-23T00:28:44.765Z,42.30
2019-03-23T00:31:49.885Z,42.40
2019-03-23T00:34:54.723Z,43.40
2019-03-23T00:37:59.575Z,42.70
2019-03-23T00:41:04.469Z,42.40
2019-03-23T00:44:10.814Z,43.00
2019-03-23T00:47:15.705Z,40.27
2019-03-23T00:50:20.654Z,40.17
2019-03-23T00:53:25.555Z,38.53
2019-03-23T00:56:30.491Z,39.20
2019-03-23T00:59:35.455Z,38.07
2019-03-23T01:02:41.913Z,37.53
2019-03-23T01:05:47.063Z,36.23
2019-03-23T01:08:52.061Z,36.00
2019-03-23T01:11:56.999Z,37.87
2019-03-23T01:15:02.056Z,36.80
2019-03-23T01:18:06.931Z,37.47
2019-03-23T01:21:11.825Z,37.17
2019-03-23T01:24:16.716Z,36.77
2019-03-23T01:27:21.654Z,37.60
2019-03-23T01:30:26.533Z,37.47
2019-03-23T01:33:32.678Z,38.63
2019-03-23T01:36:37.578Z,40.57
2019-03-23T01:39:42.531Z,39.03
2019-03-23T01:42:47.409Z,41.60
2019-03-23T01:45:52.343Z,41.93
2019-03-23T01:48:57.246Z,39.73
2019-03-23T01:52:02.210Z,40.33
2019-03-23T01:55:08.867Z,39.47
2019-03-23T01:58:13.779Z,41.90
2019-03-23T02:01:18.610Z,43.13
2019-03-23T02:04:24.053Z,42.83
2019-03-23T02:07:28.953Z,40.87
2019-03-23T02:10:33.872Z,40.60
2019-03-23T02:13:38.672Z,40.60
2019-03-23T02:16:43.624Z,39.87
2019-03-23T02:19:48.462Z,41.07
2019-03-23T02:22:53.385Z,39.27
2019-03-23T02:25:58.270Z,39.27
2019-03-23T02:29:03.187Z,39.50
2019-03-23T02:32:08.077Z,40.57
2019-03-23T02:35:13.018Z,41.63
2019-03-23T02:38:17.879Z,41.37
2019-03-23T02:41:22.808Z,38.47
2019-03-23T02:44:27.712Z,37.83
2019-03-23T02:47:32.656Z,38.57
2019-03-23T02:50:37.548Z,38.50
2019-03-23T02:53:42.489Z,38.40
2019-03-23T02:56:47.379Z,38.27
2019-03-23T02:59:52.276Z,37.93
2019-03-23T03:02:57.094Z,36.83
2019-03-23T03:06:02.049Z,38.07
2019-03-23T03:09:07.663Z,36.00
2019-03-23T03:12:12.565Z,37.77
2019-03-23T03:15:36.235Z,37.53
2019-03-23T03:18:41.213Z,35.20
2019-03-23T03:21:46.140Z,36.40
2019-03-23T03:24:51.043Z,35.23
2019-03-23T03:27:55.964Z,35.03
2019-03-23T03:31:00.945Z,36.60
2019-03-23T03:34:05.812Z,37.83
2019-03-23T03:37:10.757Z,35.57
2019-03-23T03:40:15.751Z,36.80
2019-03-23T03:43:20.716Z,36.80
2019-03-23T03:46:25.555Z,36.77
2019-03-23T03:49:30.514Z,36.73
2019-03-23T03:52:35.415Z,37.03
2019-03-23T03:55:40.336Z,38.23
2019-03-23T03:58:45.224Z,39.83
2019-03-23T04:01:50.129Z,39.30
2019-03-23T04:04:54.952Z,38.53
2019-03-23T04:08:10.460Z,39.27
2019-03-23T04:11:06.712Z,39.40
2019-03-23T04:14:11.623Z,38.67
2019-03-23T04:17:16.519Z,39.73
2019-03-23T04:20:21.452Z,40.13
2019-03-23T04:23:26.340Z,39.93
2019-03-23T04:26:31.263Z,42.53
2019-03-23T04:29:36.134Z,42.03
2019-03-23T04:32:41.048Z,41.00
2019-03-23T04:35:45.966Z,41.33
2019-03-23T04:38:50.907Z,39.73
2019-03-23T04:41:55.791Z,44.33
2019-03-23T04:45:00.727Z,41.13
2019-03-23T04:48:05.615Z,41.03
2019-03-23T04:51:10.595Z,41.13
2019-03-23T04:54:15.469Z,41.67
2019-03-23T04:57:20.363Z,41.10
2019-03-23T05:00:25.260Z,41.13
2019-03-23T05:03:30.187Z,41.13
2019-03-23T05:06:35.071Z,41.33
2019-03-23T05:09:39.899Z,37.10
2019-03-23T05:12:44.788Z,36.20
2019-03-23T05:15:49.703Z,34.33
2019-03-23T05:18:54.512Z,33.20
2019-03-23T05:21:59.460Z,33.70
2019-03-23T05:25:04.558Z,30.43
2019-03-23T05:28:09.456Z,29.83
2019-03-23T05:31:14.352Z,26.13
2019-03-23T05:34:19.260Z,27.07
2019-03-23T05:37:24.164Z,26.97
2019-03-23T05:40:28.999Z,26.83
2019-03-23T05:43:33.831Z,25.30
2019-03-23T05:46:38.684Z,23.77
2019-03-23T05:49:43.539Z,24.00
2019-03-23T05:52:48.485Z,24.80
2019-03-23T05:55:53.294Z,24.23
2019-03-23T05:58:58.211Z,25.67
2019-03-23T06:02:03.089Z,24.00
2019-03-23T06:05:08.243Z,23.93
2019-03-23T06:08:13.119Z,24.83
2019-03-23T06:11:18.148Z,24.80
2019-03-23T06:14:23.804Z,24.30
2019-03-23T06:17:28.725Z,23.17
2019-03-23T06:20:33.605Z,25.30
2019-03-23T06:23:38.570Z,24.67
2019-03-23T06:26:43.465Z,23.73
2019-03-23T06:29:48.376Z,24.50
2019-03-23T06:32:53.258Z,23.43
2019-03-23T06:35:58.180Z,23.77
2019-03-23T06:39:05.703Z,25.00
2019-03-23T06:42:09.854Z,25.37
2019-03-23T06:45:14.858Z,24.43
2019-03-23T06:48:19.798Z,26.27
2019-03-23T06:51:24.683Z,27.77
2019-03-23T06:54:29.634Z,26.63
2019-03-23T06:57:34.538Z,25.90
2019-03-23T07:00:39.491Z,25.87
2019-03-23T07:03:44.393Z,25.97
2019-03-23T07:06:49.172Z,25.77
2019-03-23T07:09:54.040Z,26.23
2019-03-23T07:12:59.331Z,25.73
2019-03-23T07:16:04.160Z,26.30
2019-03-23T07:19:09.089Z,25.03
2019-03-23T07:22:13.971Z,25.47
2019-03-23T07:25:18.935Z,24.90
2019-03-23T07:28:23.840Z,25.57
2019-03-23T07:31:28.747Z,25.23
2019-03-23T07:34:33.646Z,26.47
2019-03-23T07:37:38.578Z,27.33
2019-03-23T07:40:43.750Z,27.43
2019-03-23T07:43:48.859Z,28.53
2019-03-23T07:46:53.761Z,26.77
2019-03-23T07:49:58.807Z,28.93
2019-03-23T07:53:03.716Z,27.33
2019-03-23T07:56:08.694Z,28.97
2019-03-23T07:59:13.633Z,30.07
2019-03-23T08:02:19.526Z,28.80
2019-03-23T08:05:24.469Z,31.17
2019-03-23T08:08:29.391Z,30.27
2019-03-23T08:11:34.269Z,30.87
2019-03-23T08:14:39.304Z,30.60
2019-03-23T08:17:44.319Z,30.67
2019-03-23T08:20:49.265Z,32.83
2019-03-23T08:23:54.158Z,29.73
2019-03-23T08:26:59.123Z,31.03
2019-03-23T08:30:04.378Z,31.50
2019-03-23T08:33:09.312Z,30.83
2019-03-23T08:36:14.206Z,32.53
2019-03-23T08:39:19.156Z,32.93
2019-03-23T08:42:24.030Z,33.33
2019-03-23T08:45:28.941Z,33.77
2019-03-23T08:48:33.834Z,32.23
2019-03-23T08:51:38.771Z,32.43
2019-03-23T08:54:43.643Z,32.23
2019-03-23T08:57:48.606Z,34.07
2019-03-23T09:00:53.498Z,34.20
2019-03-23T09:03:58.410Z,33.93
2019-03-23T09:07:03.319Z,32.80
2019-03-23T09:10:08.730Z,33.30
2019-03-23T09:13:13.654Z,33.00
2019-03-23T09:16:18.586Z,34.53
2019-03-23T09:19:23.483Z,32.97
2019-03-23T09:22:28.427Z,32.23
2019-03-23T09:25:33.358Z,32.03
2019-03-23T09:28:38.320Z,31.47
2019-03-23T09:31:45.153Z,32.17
2019-03-23T09:34:50.004Z,32.17
2019-03-23T09:37:54.812Z,31.30
2019-03-23T09:40:59.736Z,31.17
2019-03-23T09:44:04.640Z,30.37
2019-03-23T09:47:09.492Z,30.63
2019-03-23T09:50:14.464Z,31.03
2019-03-23T09:53:19.409Z,32.53
2019-03-23T09:56:24.291Z,31.63
2019-03-23T09:59:29.308Z,29.93
2019-03-23T10:02:34.219Z,29.60
2019-03-23T10:05:39.157Z,31.50
2019-03-23T10:08:46.346Z,29.83
2019-03-23T10:11:50.761Z,32.63
2019-03-23T10:14:55.698Z,32.47
2019-03-23T10:18:01.681Z,32.73
2019-03-23T10:21:06.841Z,33.33
2019-03-23T10:24:11.757Z,30.63
2019-03-23T10:27:16.580Z,31.17
2019-03-23T10:30:21.548Z,31.77
2019-03-23T10:33:26.374Z,31.73
2019-03-23T10:36:31.216Z,31.77
2019-03-23T10:39:36.142Z,29.33
2019-03-23T10:42:43.240Z,29.57
2019-03-23T10:45:47.615Z,28.40
2019-03-23T10:48:52.546Z,29.07
2019-03-23T10:51:57.446Z,27.53
2019-03-23T10:55:02.390Z,26.40
2019-03-23T10:58:07.276Z,27.37
2019-03-23T11:01:12.239Z,28.80
2019-03-23T11:04:17.070Z,28.43
2019-03-23T11:07:21.980Z,29.33
2019-03-23T11:10:26.863Z,29.07
2019-03-23T11:13:31.903Z,27.43
2019-03-23T11:16:36.829Z,27.87
2019-03-23T11:19:41.746Z,27.27
2019-03-23T11:22:46.632Z,27.30
2019-03-23T11:25:51.579Z,28.10
2019-03-23T11:28:56.477Z,26.77
2019-03-23T11:32:01.447Z,27.63
2019-03-23T11:35:08.117Z,27.73
2019-03-23T11:38:13.143Z,26.00
2019-03-23T11:41:18.060Z,26.93
2019-03-23T11:44:23.041Z,26.33
2019-03-23T11:47:27.950Z,26.73
2019-03-23T11:50:32.884Z,26.17
2019-03-23T11:53:37.738Z,26.40
2019-03-23T11:56:42.705Z,24.70
2019-03-23T11:59:47.598Z,21.80
2019-03-23T12:02:52.537Z,23.83
2019-03-23T12:05:57.486Z,24.87
2019-03-23T12:09:02.439Z,24.77
2019-03-23T12:12:07.393Z,27.43
2019-03-23T12:15:12.736Z,25.40
2019-03-23T12:18:17.626Z,24.87
2019-03-23T12:21:22.548Z,23.87
2019-03-23T12:24:27.440Z,22.87
2019-03-23T12:27:32.366Z,21.33
2019-03-23T12:30:37.265Z,22.77
2019-03-23T12:33:42.255Z,22.63
2019-03-23T12:36:47.148Z,23.40
2019-03-23T12:39:52.111Z,22.20
2019-03-23T12:42:57.044Z,20.33
2019-03-23T12:46:01.980Z,20.77
2019-03-23T12:49:06.998Z,22.53
2019-03-23T12:52:12.062Z,20.70
2019-03-23T12:55:16.986Z,21.67
2019-03-23T12:58:22.896Z,21.33
2019-03-23T13:01:29.059Z,21.17
2019-03-23T13:04:34.085Z,22.17
2019-03-23T13:07:39.012Z,20.63
2019-03-23T13:10:43.926Z,20.60
2019-03-23T13:13:48.855Z,20.23
2019-03-23T13:16:53.776Z,21.00
2019-03-23T13:19:58.728Z,21.37
2019-03-23T13:23:04.760Z,21.20
2019-03-23T13:26:09.747Z,19.93
2019-03-23T13:29:14.719Z,19.13
2019-03-23T13:32:19.639Z,20.07
2019-03-23T13:35:24.660Z,18.43
2019-03-23T13:38:29.571Z,18.77
2019-03-23T13:41:34.532Z,21.97
2019-03-23T13:44:39.440Z,19.90
2019-03-23T13:47:44.377Z,20.37
2019-03-23T13:50:49.251Z,19.40
2019-03-23T13:53:54.119Z,18.10
2019-03-23T13:56:59.095Z,19.50
2019-03-23T14:00:04.805Z,19.50
2019-03-23T14:03:09.746Z,20.07
2019-03-23T14:06:14.704Z,19.80
2019-03-23T14:09:19.570Z,18.23
2019-03-23T14:12:24.493Z,19.00
2019-03-23T14:15:29.410Z,19.27
2019-03-23T14:18:35.844Z,18.23
2019-03-23T14:21:40.853Z,19.37
2019-03-23T14:24:45.777Z,19.10
2019-03-23T14:27:50.906Z,19.30
2019-03-23T14:30:55.853Z,20.00
2019-03-23T14:34:00.790Z,19.17
2019-03-23T14:37:06.131Z,19.30
2019-03-23T14:40:11.327Z,18.87
2019-03-23T14:43:16.252Z,19.77
2019-03-23T14:46:21.136Z,19.17
2019-03-23T14:49:25.964Z,17.90
2019-03-23T14:52:30.777Z,19.23
2019-03-23T14:55:37.493Z,19.67
2019-03-23T14:59:00.864Z,18.53
2019-03-23T15:02:05.818Z,18.40
2019-03-23T15:05:10.712Z,18.20
2019-03-23T15:08:15.672Z,18.47
2019-03-23T15:11:27.871Z,16.97
2019-03-23T15:14:32.716Z,16.97
2019-03-23T15:17:37.551Z,17.53
2019-03-23T15:20:42.478Z,16.40
2019-03-23T15:23:47.406Z,17.80
2019-03-23T15:26:52.347Z,17.57
2019-03-23T15:29:57.147Z,16.67
2019-03-23T15:33:02.016Z,16.03
2019-03-23T15:36:06.925Z,14.70
2019-03-23T15:39:11.845Z,15.07
2019-03-23T15:42:24.442Z,15.00
2019-03-23T15:45:23.314Z,14.97
2019-03-23T15:48:28.749Z,15.40
2019-03-23T15:51:33.847Z,15.57
2019-03-23T15:54:38.664Z,16.50
2019-03-23T15:57:43.542Z,14.60
2019-03-23T16:00:48.507Z,14.40
2019-03-23T16:03:53.449Z,15.53
2019-03-23T16:06:58.387Z,16.03
2019-03-23T16:10:03.393Z,15.63
2019-03-23T16:13:08.290Z,16.47
2019-03-23T16:16:13.230Z,16.73
2019-03-23T16:19:18.131Z,17.37
2019-03-23T16:22:23.075Z,18.73
2019-03-23T16:25:27.956Z,17.73
2019-03-23T16:28:32.816Z,20.63
2019-03-23T16:31:37.732Z,21.87
2019-03-23T16:34:42.695Z,22.17
2019-03-23T16:37:47.726Z,21.63
2019-03-23T16:40:52.763Z,22.93
2019-03-23T16:43:57.700Z,22.70
2019-03-23T16:47:02.620Z,23.63
2019-03-23T16:50:09.878Z,25.07
2019-03-23T16:53:14.812Z,25.07
2019-03-23T16:56:19.793Z,27.60
2019-03-23T16:59:24.674Z,30.73
2019-03-23T17:02:29.602Z,45.43
2019-03-23T17:05:38.109Z,51.03
2019-03-23T17:08:43.024Z,58.70
2019-03-23T17:11:48.019Z,59.97
2019-03-23T17:14:52.954Z,74.47
2019-03-23T17:17:57.955Z,81.13
2019-03-23T17:21:03.908Z,87.37
2019-03-23T17:24:08.910Z,86.17
2019-03-23T17:27:13.854Z,68.53
2019-03-23T17:30:18.790Z,69.67
2019-03-23T17:33:24.771Z,69.17
2019-03-23T17:36:29.746Z,71.27
2019-03-23T17:39:34.643Z,71.67
2019-03-23T17:42:39.590Z,72.13
2019-03-23T17:45:44.623Z,69.07
2019-03-23T17:48:49.554Z,65.63
2019-03-23T17:51:55.521Z,64.77
2019-03-23T17:55:00.649Z,65.40
2019-03-23T17:58:05.558Z,64.83
2019-03-23T18:01:19.338Z,64.10
2019-03-23T18:04:18.506Z,61.60
2019-03-23T18:07:23.461Z,59.83
2019-03-23T18:10:28.391Z,59.10
2019-03-23T18:13:33.355Z,57.83
2019-03-23T18:16:38.325Z,58.67
2019-03-23T18:19:43.245Z,58.57
2019-03-23T18:22:48.150Z,62.53
2019-03-23T18:25:53.069Z,64.63
2019-03-23T18:28:58.014Z,66.03
2019-03-23T18:32:03.016Z,70.53
2019-03-23T18:35:08.182Z,75.07
2019-03-23T18:38:13.172Z,85.20
2019-03-23T18:41:18.077Z,94.17
2019-03-23T18:44:23.064Z,97.87
2019-03-23T18:47:27.961Z,102.40
2019-03-23T18:50:33.001Z,104.17
2019-03-23T18:53:37.913Z,109.97
2019-03-23T18:56:42.885Z,115.23
2019-03-23T18:59:47.799Z,116.93
2019-03-23T19:02:52.753Z,122.33
2019-03-23T19:05:57.679Z,118.57
2019-03-23T19:09:02.760Z,117.93
2019-03-23T19:12:07.712Z,114.70
2019-03-23T19:15:12.812Z,118.10
2019-03-23T19:18:17.833Z,120.17
2019-03-23T19:21:22.775Z,116.03
2019-03-23T19:24:28.193Z,116.83
2019-03-23T19:27:33.301Z,118.43
2019-03-23T19:30:38.212Z,115.97
2019-03-23T19:33:43.163Z,116.47
2019-03-23T19:36:48.091Z,113.30
2019-03-23T19:39:53.059Z,109.97
2019-03-23T19:42:59.665Z,111.47
2019-03-23T19:46:04.716Z,107.30
2019-03-23T19:49:09.628Z,104.57
2019-03-23T19:52:14.658Z,105.63
2019-03-23T19:55:19.714Z,103.63
2019-03-23T19:58:24.671Z,106.43
2019-03-23T20:01:29.607Z,111.53
2019-03-23T20:04:34.560Z,111.17
2019-03-23T20:07:39.428Z,116.63
2019-03-23T20:10:44.367Z,120.10
2019-03-23T20:13:58.393Z,122.17
2019-03-23T20:16:56.387Z,125.17
2019-03-23T20:20:01.451Z,128.37
2019-03-23T20:23:06.396Z,130.60
2019-03-23T20:26:11.569Z,130.60
2019-03-23T20:29:16.961Z,136.17
2019-03-23T20:32:21.899Z,138.83
2019-03-23T20:35:27.616Z,142.10
2019-03-23T20:38:35.984Z,141.80
2019-03-23T20:41:40.947Z,147.80
2019-03-23T20:44:45.864Z,143.10
2019-03-23T20:47:50.980Z,143.00
2019-03-23T20:50:55.879Z,143.27
2019-03-23T20:54:01.117Z,142.10
2019-03-23T20:57:06.019Z,145.07
2019-03-23T21:00:10.932Z,146.70
2019-03-23T21:03:15.871Z,147.23
2019-03-23T21:06:20.831Z,150.20
2019-03-23T21:09:25.755Z,150.27
2019-03-23T21:12:30.702Z,147.97
2019-03-23T21:15:35.615Z,148.33
2019-03-23T21:18:40.546Z,149.50
2019-03-23T21:21:45.516Z,150.77
2019-03-23T21:24:50.448Z,149.47
2019-03-23T21:27:55.728Z,149.13
2019-03-23T21:31:00.797Z,146.07
2019-03-23T21:34:06.202Z,142.33
2019-03-23T21:37:11.156Z,137.87
2019-03-23T21:40:16.190Z,134.37
2019-03-23T21:43:21.157Z,129.27
2019-03-23T21:46:26.228Z,125.20
2019-03-23T21:49:31.240Z,123.03
2019-03-23T21:52:36.333Z,118.93
2019-03-23T21:55:41.446Z,115.17
2019-03-23T21:58:46.408Z,114.00
2019-03-23T22:01:51.460Z,109.70
2019-03-23T22:04:56.364Z,109.83
2019-03-23T22:08:01.480Z,106.90
2019-03-23T22:11:08.384Z,105.63
2019-03-23T22:14:15.232Z,101.40
2019-03-23T22:17:20.128Z,101.93
2019-03-23T22:20:25.098Z,99.47
2019-03-23T22:23:30.088Z,97.10
2019-03-23T22:26:35.002Z,96.97
2019-03-23T22:29:40.804Z,94.13
2019-03-23T22:32:45.661Z,95.87
2019-03-23T22:35:52.403Z,90.30
2019-03-23T22:38:57.269Z,92.47
2019-03-23T22:42:02.198Z,92.57
2019-03-23T22:45:07.516Z,88.33
2019-03-23T22:48:12.691Z,86.30
2019-03-23T22:51:17.624Z,86.17
2019-03-23T22:54:22.560Z,87.30
2019-03-23T22:57:27.501Z,84.53
2019-03-23T23:00:41.723Z,84.00
2019-03-23T23:03:46.669Z,83.00
2019-03-23T23:06:51.573Z,82.97
2019-03-23T23:09:56.439Z,80.17
2019-03-23T23:13:01.680Z,82.37
2019-03-23T23:16:06.529Z,80.07
2019-03-23T23:19:11.530Z,79.40
2019-03-23T23:22:16.487Z,80.70
2019-03-23T23:25:21.447Z,79.20
2019-03-23T23:28:27.865Z,80.33
2019-03-23T23:31:32.812Z,76.33
2019-03-23T23:34:37.735Z,77.57
2019-03-23T23:37:43.319Z,78.20
2019-03-23T23:40:48.361Z,77.53
2019-03-23T23:43:53.232Z,77.90
2019-03-23T23:46:58.174Z,77.67
2019-03-23T23:50:03.084Z,81.43
2019-03-23T23:53:08.227Z,81.97
2019-03-23T23:56:13.752Z,81.57
2019-03-23T23:59:18.668Z,84.43
